createdAt,value
2019-04-14T00:02:44.729Z,101612.64
2019-04-14T00:05:16.926Z,101607.03
2019-04-14T00:07:45.697Z,101608.76
2019-04-14T00:10:16.080Z,101614.81
2019-04-14T00:12:47.052Z,101606.97
2019-04-14T00:15:41.955Z,101607.41
2019-04-14T00:18:09.681Z,101598.72
2019-04-14T00:20:40.488Z,101604.80
2019-04-14T00:23:09.049Z,101603.45
2019-04-14T00:25:41.159Z,101604.71
2019-04-14T00:28:11.730Z,101606.88
2019-04-14T00:30:40.550Z,101598.19
2019-04-14T00:33:10.695Z,101605.58
2019-04-14T00:35:53.973Z,101596.84
2019-04-14T00:38:37.040Z,101595.98
2019-04-14T00:41:44.953Z,101593.31
2019-04-14T00:44:17.466Z,101590.25
2019-04-14T00:46:51.674Z,101588.44
2019-04-14T00:49:22.155Z,101591.44
2019-04-14T00:51:52.838Z,101593.25
2019-04-14T00:54:23.966Z,101591.49
2019-04-14T00:56:54.078Z,101593.20
2019-04-14T00:59:23.141Z,101590.11
2019-04-14T01:01:52.707Z,101593.56
2019-04-14T01:04:23.009Z,101592.21
2019-04-14T01:06:56.207Z,101594.03
2019-04-14T01:09:26.102Z,101585.73
2019-04-14T01:11:57.343Z,101590.11
2019-04-14T01:14:27.732Z,101593.13
2019-04-14T01:16:56.400Z,101592.67
2019-04-14T01:19:27.165Z,101596.64
2019-04-14T01:22:01.057Z,101597.09
2019-04-14T01:24:34.641Z,101600.55
2019-04-14T01:27:06.642Z,101598.80
2019-04-14T01:29:36.819Z,101597.89
2019-04-14T01:32:08.782Z,101595.28
2019-04-14T01:34:39.190Z,101599.18
2019-04-14T01:37:09.448Z,101604.41
2019-04-14T01:39:41.357Z,101610.48
2019-04-14T01:42:11.701Z,101614.83
2019-04-14T01:44:40.288Z,101621.73
2019-04-14T01:47:11.576Z,101619.60
2019-04-14T01:49:41.823Z,101626.13
2019-04-14T01:52:28.253Z,101625.64
2019-04-14T01:55:18.411Z,101625.08
2019-04-14T01:58:05.365Z,101623.78
2019-04-14T02:00:55.385Z,101620.18
2019-04-14T02:03:28.118Z,101623.73
2019-04-14T02:05:58.379Z,101624.52
2019-04-14T02:08:28.305Z,101625.02
2019-04-14T02:10:58.777Z,101625.45
2019-04-14T02:13:29.384Z,101618.41
2019-04-14T02:16:11.089Z,101619.30
2019-04-14T02:18:32.003Z,101624.62
2019-04-14T02:21:02.260Z,101622.40
2019-04-14T02:23:32.195Z,101621.86
2019-04-14T02:26:04.676Z,101614.84
2019-04-14T02:28:33.739Z,101615.28
2019-04-14T02:31:17.770Z,101608.70
2019-04-14T02:34:17.106Z,101616.95
2019-04-14T02:36:32.677Z,101613.53
2019-04-14T02:39:08.690Z,101620.91
2019-04-14T02:41:35.918Z,101630.83
2019-04-14T02:44:04.705Z,101632.81
2019-04-14T02:46:38.331Z,101637.19
2019-04-14T02:51:33.475Z,101638.77
2019-04-14T02:54:20.104Z,101637.79
2019-04-14T02:56:35.795Z,101640.25
2019-04-14T02:59:30.413Z,101639.87
2019-04-14T03:04:11.261Z,101634.23
2019-04-14T03:06:52.161Z,101630.33
2019-04-14T03:11:45.902Z,101633.37
2019-04-14T03:14:25.540Z,101626.77
2019-04-14T03:17:13.877Z,101625.49
2019-04-14T03:20:14.039Z,101627.73
2019-04-14T03:25:53.089Z,101621.78
2019-04-14T03:28:31.874Z,101626.23
2019-04-14T03:36:44.885Z,101632.06
2019-04-14T03:38:54.963Z,101640.37
2019-04-14T03:41:31.569Z,101640.92
2019-04-14T03:43:43.984Z,101641.56
2019-04-14T03:46:39.303Z,101638.84
2019-04-14T03:53:58.685Z,101638.78
2019-04-14T03:56:33.896Z,101633.06
2019-04-14T03:59:02.461Z,101643.53
2019-04-14T04:01:32.595Z,101634.77
2019-04-14T04:04:01.532Z,101642.10
2019-04-14T04:06:31.340Z,101645.11
2019-04-14T04:09:00.202Z,101646.41
2019-04-14T04:11:34.458Z,101648.61
2019-04-14T04:14:03.434Z,101646.55
2019-04-14T04:16:52.967Z,101646.42
2019-04-14T04:19:27.292Z,101647.57
2019-04-14T04:22:15.280Z,101653.70
2019-04-14T04:24:58.586Z,101654.02
2019-04-14T04:27:41.707Z,101656.63
2019-04-14T04:30:23.093Z,101653.60
2019-04-14T04:33:00.082Z,101656.50
2019-04-14T04:35:39.366Z,101662.10
2019-04-14T04:38:18.131Z,101664.20
2019-04-14T04:40:46.725Z,101661.53
2019-04-14T04:43:16.849Z,101658.94
2019-04-14T04:45:47.283Z,101663.50
2019-04-14T04:48:17.723Z,101663.59
2019-04-14T04:50:49.923Z,101664.89
2019-04-14T04:53:20.283Z,101662.71
2019-04-14T04:55:50.386Z,101664.12
2019-04-14T04:58:19.514Z,101670.73
2019-04-14T05:00:51.017Z,101658.36
2019-04-14T05:03:21.133Z,101665.95
2019-04-14T05:06:30.849Z,101663.84
2019-04-14T05:09:07.795Z,101665.62
2019-04-14T05:11:44.804Z,101669.44
2019-04-14T05:14:19.472Z,101672.94
2019-04-14T05:17:10.148Z,101673.78
2019-04-14T05:19:41.970Z,101677.33
2019-04-14T05:22:11.309Z,101684.02
2019-04-14T05:24:44.050Z,101683.22
2019-04-14T05:27:14.570Z,101687.78
2019-04-14T05:29:44.989Z,101678.36
2019-04-14T05:32:17.397Z,101681.16
2019-04-14T05:34:46.382Z,101676.16
2019-04-14T05:37:18.255Z,101679.33
2019-04-14T05:40:10.232Z,101680.73
2019-04-14T05:42:40.738Z,101678.66
2019-04-14T05:45:11.569Z,101693.12
2019-04-14T05:47:41.829Z,101692.30
2019-04-14T05:50:11.651Z,101689.39
2019-04-14T05:52:40.529Z,101690.35
2019-04-14T05:55:09.696Z,101684.73
2019-04-14T05:57:39.819Z,101685.64
2019-04-14T06:00:10.372Z,101695.76
2019-04-14T06:02:40.134Z,101695.78
2019-04-14T06:05:11.227Z,101699.76
2019-04-14T06:07:39.676Z,101702.09
2019-04-14T06:10:08.427Z,101694.72
2019-04-14T06:12:37.353Z,101696.45
2019-04-14T06:15:06.151Z,101702.13
2019-04-14T06:17:36.479Z,101700.81
2019-04-14T06:20:06.738Z,101706.94
2019-04-14T06:22:37.530Z,101708.70
2019-04-14T06:25:07.325Z,101706.05
2019-04-14T06:27:39.512Z,101703.02
2019-04-14T06:30:28.466Z,101700.41
2019-04-14T06:33:01.178Z,101700.82
2019-04-14T06:35:33.870Z,101707.36
2019-04-14T06:38:07.663Z,101708.27
2019-04-14T06:40:42.813Z,101706.08
2019-04-14T06:43:13.601Z,101710.84
2019-04-14T06:45:44.191Z,101712.63
2019-04-14T06:48:13.166Z,101716.13
2019-04-14T06:50:43.236Z,101710.89
2019-04-14T06:53:13.374Z,101710.89
2019-04-14T06:55:42.697Z,101711.34
2019-04-14T06:58:13.209Z,101706.98
2019-04-14T07:00:41.779Z,101711.75
2019-04-14T07:03:10.357Z,101710.89
2019-04-14T07:05:38.951Z,101706.09
2019-04-14T07:08:07.549Z,101701.31
2019-04-14T07:10:38.348Z,101703.52
2019-04-14T07:13:07.303Z,101712.20
2019-04-14T07:15:35.862Z,101710.47
2019-04-14T07:18:04.493Z,101708.72
2019-04-14T07:20:34.625Z,101715.67
2019-04-14T07:23:03.853Z,101723.53
2019-04-14T07:25:34.101Z,101715.23
2019-04-14T07:28:03.070Z,101719.64
2019-04-14T07:30:53.837Z,101719.65
2019-04-14T07:33:38.748Z,101712.24
2019-04-14T07:36:29.974Z,101721.38
2019-04-14T07:39:18.294Z,101720.08
2019-04-14T07:42:09.544Z,101710.92
2019-04-14T07:44:48.306Z,101717.43
2019-04-14T07:47:37.540Z,101718.28
2019-04-14T07:50:24.106Z,101717.41
2019-04-14T07:53:16.217Z,101717.81
2019-04-14T07:56:06.900Z,101721.33
2019-04-14T07:59:01.068Z,101715.65
2019-04-14T08:01:34.373Z,101712.13
2019-04-14T08:04:29.298Z,101720.00
2019-04-14T08:06:59.292Z,101723.03
2019-04-14T08:09:29.982Z,101727.01
2019-04-14T08:11:58.982Z,101724.80
2019-04-14T08:14:29.749Z,101727.42
2019-04-14T08:16:58.820Z,101727.86
2019-04-14T08:19:28.102Z,101724.80
2019-04-14T08:21:58.066Z,101724.85
2019-04-14T08:24:29.606Z,101726.61
2019-04-14T08:26:58.182Z,101721.29
2019-04-14T08:29:28.510Z,101722.48
2019-04-14T08:31:57.094Z,101718.42
2019-04-14T08:34:26.316Z,101720.11
2019-04-14T08:36:55.074Z,101722.73
2019-04-14T08:39:23.954Z,101720.53
2019-04-14T08:42:03.803Z,101714.70
2019-04-14T08:44:58.931Z,101721.09
2019-04-14T08:47:56.613Z,101715.72
2019-04-14T08:50:39.897Z,101722.61
2019-04-14T08:53:42.889Z,101719.61
2019-04-14T08:56:18.504Z,101722.12
2019-04-14T08:59:09.647Z,101726.57
2019-04-14T09:01:57.252Z,101726.27
2019-04-14T09:04:34.705Z,101726.52
2019-04-14T09:07:22.933Z,101730.26
2019-04-14T09:09:58.711Z,101727.61
2019-04-14T09:12:30.699Z,101724.45
2019-04-14T09:14:59.450Z,101719.20
2019-04-14T09:17:32.656Z,101725.02
2019-04-14T09:20:01.629Z,101730.75
2019-04-14T09:22:33.457Z,101730.05
2019-04-14T09:25:02.050Z,101730.06
2019-04-14T09:27:32.205Z,101741.10
2019-04-14T09:30:04.016Z,101737.16
2019-04-14T09:32:34.788Z,101740.95
2019-04-14T09:35:05.329Z,101740.48
2019-04-14T09:37:38.628Z,101742.66
2019-04-14T09:40:07.378Z,101744.53
2019-04-14T09:42:39.697Z,101748.00
2019-04-14T09:45:11.445Z,101747.93
2019-04-14T09:47:40.394Z,101743.53
2019-04-14T09:50:11.008Z,101747.27
2019-04-14T09:52:41.636Z,101740.19
2019-04-14T09:55:10.587Z,101741.67
2019-04-14T09:57:40.706Z,101741.61
2019-04-14T10:00:11.747Z,101736.44
2019-04-14T10:02:40.507Z,101735.13
2019-04-14T10:05:11.213Z,101731.80
2019-04-14T10:07:39.804Z,101733.27
2019-04-14T10:10:10.638Z,101733.25
2019-04-14T10:12:40.585Z,101736.62
2019-04-14T10:15:09.178Z,101733.28
2019-04-14T10:17:39.868Z,101734.18
2019-04-14T10:20:10.282Z,101732.74
2019-04-14T10:22:38.874Z,101736.81
2019-04-14T10:25:07.451Z,101737.51
2019-04-14T10:27:37.932Z,101743.02
2019-04-14T10:30:06.942Z,101735.37
2019-04-14T10:32:37.113Z,101739.56
2019-04-14T10:35:06.194Z,101747.36
2019-04-14T10:37:34.955Z,101740.69
2019-04-14T10:40:06.055Z,101739.86
2019-04-14T10:42:34.189Z,101739.30
2019-04-14T10:45:02.757Z,101744.96
2019-04-14T10:47:31.650Z,101741.56
2019-04-14T10:50:04.138Z,101741.61
2019-04-14T10:52:33.938Z,101741.68
2019-04-14T10:55:02.513Z,101741.30
2019-04-14T10:57:31.284Z,101743.58
2019-04-14T11:00:01.846Z,101743.55
2019-04-14T11:02:34.003Z,101746.13
2019-04-14T11:05:04.232Z,101744.02
2019-04-14T11:07:33.554Z,101745.27
2019-04-14T11:10:04.439Z,101751.81
2019-04-14T11:12:33.027Z,101751.08
2019-04-14T11:15:01.838Z,101748.72
2019-04-14T11:17:30.539Z,101749.66
2019-04-14T11:20:01.982Z,101752.00
2019-04-14T11:22:35.354Z,101746.28
2019-04-14T11:25:03.913Z,101742.37
2019-04-14T11:27:32.482Z,101746.05
2019-04-14T11:30:05.588Z,101752.80
2019-04-14T11:32:45.593Z,101744.67
2019-04-14T11:35:35.319Z,101751.69
2019-04-14T11:38:26.614Z,101751.07
2019-04-14T11:40:59.490Z,101755.80
2019-04-14T11:43:29.448Z,101763.39
2019-04-14T11:46:03.413Z,101752.83
2019-04-14T11:48:31.246Z,101758.48
2019-04-14T11:51:03.192Z,101755.89
2019-04-14T11:53:32.321Z,101759.70
2019-04-14T11:56:03.175Z,101756.55
2019-04-14T11:58:31.763Z,101761.04
2019-04-14T12:01:29.598Z,101758.41
2019-04-14T12:04:05.337Z,101757.48
2019-04-14T12:06:55.785Z,101758.13
2019-04-14T12:09:36.166Z,101768.37
2019-04-14T12:14:55.600Z,101769.19
2019-04-14T12:17:24.852Z,101772.48
2019-04-14T12:19:55.058Z,101773.45
2019-04-14T12:22:25.780Z,101768.66
2019-04-14T12:24:55.088Z,101773.51
2019-04-14T12:27:24.362Z,101770.42
2019-04-14T12:29:54.528Z,101775.18
2019-04-14T12:32:25.315Z,101777.29
2019-04-14T12:34:53.903Z,101786.44
2019-04-14T12:37:23.928Z,101779.01
2019-04-14T12:39:53.047Z,101785.59
2019-04-14T12:42:45.963Z,101784.22
2019-04-14T12:45:30.412Z,101781.97
2019-04-14T12:48:17.098Z,101783.38
2019-04-14T12:50:53.831Z,101786.45
2019-04-14T12:53:24.949Z,101793.44
2019-04-14T12:55:53.529Z,101790.37
2019-04-14T12:58:28.901Z,101786.00
2019-04-14T13:01:04.755Z,101792.54
2019-04-14T13:03:35.537Z,101787.75
2019-04-14T13:06:04.096Z,101795.39
2019-04-14T13:08:32.670Z,101798.45
2019-04-14T13:11:01.554Z,101800.23
2019-04-14T13:13:30.573Z,101801.16
2019-04-14T13:16:01.745Z,101798.97
2019-04-14T13:18:30.325Z,101797.77
2019-04-14T13:20:59.209Z,101792.95
2019-04-14T13:23:30.276Z,101790.34
2019-04-14T13:25:59.180Z,101797.33
2019-04-14T13:28:28.128Z,101796.89
2019-04-14T13:30:57.270Z,101792.48
2019-04-14T13:33:26.344Z,101798.09
2019-04-14T13:35:55.264Z,101791.58
2019-04-14T13:38:25.508Z,101796.33
2019-04-14T13:40:56.407Z,101796.80
2019-04-14T13:43:25.356Z,101802.53
2019-04-14T13:45:56.440Z,101800.81
2019-04-14T13:48:25.918Z,101794.72
2019-04-14T13:50:55.294Z,101801.28
2019-04-14T13:53:27.233Z,101794.73
2019-04-14T13:55:58.089Z,101797.34
2019-04-14T13:58:27.196Z,101797.33
2019-04-14T14:00:57.634Z,101792.94
2019-04-14T14:03:29.430Z,101790.36
2019-04-14T14:05:58.003Z,101795.19
2019-04-14T14:08:28.644Z,101790.80
2019-04-14T14:11:04.033Z,101785.53
2019-04-14T14:13:41.729Z,101785.95
2019-04-14T14:16:34.053Z,101785.02
2019-04-14T14:19:07.779Z,101789.41
2019-04-14T14:21:49.289Z,101775.45
2019-04-14T14:24:37.357Z,101785.47
2019-04-14T14:27:08.793Z,101781.56
2019-04-14T14:29:37.761Z,101781.61
2019-04-14T14:32:10.247Z,101783.45
2019-04-14T14:34:39.258Z,101781.28
2019-04-14T14:37:10.976Z,101788.30
2019-04-14T14:39:40.097Z,101780.83
2019-04-14T14:42:12.183Z,101781.31
2019-04-14T14:44:50.045Z,101788.33
2019-04-14T14:47:27.608Z,101788.78
2019-04-14T14:50:14.625Z,101787.52
2019-04-14T14:52:46.509Z,101783.61
2019-04-14T14:55:15.071Z,101788.00
2019-04-14T14:57:43.822Z,101788.44
2019-04-14T15:00:22.922Z,101789.76
2019-04-14T15:02:53.673Z,101794.06
2019-04-14T15:05:24.503Z,101788.78
2019-04-14T15:07:53.040Z,101797.13
2019-04-14T15:10:23.455Z,101790.53
2019-04-14T15:12:55.461Z,101792.74
2019-04-14T15:15:28.953Z,101797.52
2019-04-14T15:17:57.849Z,101791.42
2019-04-14T15:20:27.146Z,101795.33
2019-04-14T15:22:58.183Z,101795.31
2019-04-14T15:25:26.734Z,101793.98
2019-04-14T15:27:55.280Z,101797.54
2019-04-14T15:30:24.629Z,101792.34
2019-04-14T15:32:53.778Z,101790.59
2019-04-14T15:35:22.888Z,101787.92
2019-04-14T15:37:51.425Z,101783.56
2019-04-14T15:40:19.984Z,101789.26
2019-04-14T15:42:48.524Z,101784.89
2019-04-14T15:45:17.084Z,101789.70
2019-04-14T15:47:45.638Z,101785.80
2019-04-14T15:50:17.752Z,101792.77
2019-04-14T15:52:49.338Z,101791.03
2019-04-14T15:55:18.793Z,101794.11
2019-04-14T15:57:56.032Z,101794.08
2019-04-14T16:00:38.492Z,101781.84
2019-04-14T16:03:24.879Z,101791.03
2019-04-14T16:06:14.648Z,101787.52
2019-04-14T16:08:56.337Z,101786.63
2019-04-14T16:11:47.116Z,101786.19
2019-04-14T16:14:53.313Z,101788.39
2019-04-14T16:17:31.630Z,101790.13
2019-04-14T16:20:04.057Z,101794.97
2019-04-14T16:22:32.681Z,101796.27
2019-04-14T16:25:01.310Z,101793.20
2019-04-14T16:27:57.779Z,101798.89
2019-04-14T16:30:34.966Z,101800.58
2019-04-14T16:33:22.942Z,101793.59
2019-04-14T16:35:51.704Z,101796.64
2019-04-14T16:38:20.446Z,101796.65
2019-04-14T16:40:51.680Z,101790.98
2019-04-14T16:43:26.120Z,101790.56
2019-04-14T16:45:54.898Z,101791.02
2019-04-14T16:48:23.796Z,101789.72
2019-04-14T16:50:52.400Z,101749.56
2019-04-14T16:53:27.463Z,101793.19
2019-04-14T16:56:17.797Z,101800.64
2019-04-14T16:58:57.982Z,101794.95
2019-04-14T17:01:33.177Z,101800.65
2019-04-14T17:04:02.128Z,101802.84
2019-04-14T17:06:32.224Z,101806.80
2019-04-14T17:09:00.777Z,101803.76
2019-04-14T17:11:29.356Z,101810.28
2019-04-14T17:14:21.499Z,101815.58
2019-04-14T17:17:09.467Z,101819.11
2019-04-14T17:20:05.205Z,101823.45
2019-04-14T17:22:44.397Z,101825.66
2019-04-14T17:25:20.390Z,101832.63
2019-04-14T17:28:10.542Z,101827.85
2019-04-14T17:30:45.211Z,101833.11
2019-04-14T17:33:38.910Z,101829.59
2019-04-14T17:36:23.449Z,101838.77
2019-04-14T17:39:05.630Z,101837.02
2019-04-14T17:41:53.647Z,101839.66
2019-04-14T17:44:26.478Z,101844.49
2019-04-14T17:47:21.028Z,101847.11
2019-04-14T17:50:06.309Z,101849.72
2019-04-14T17:52:43.143Z,101856.75
2019-04-14T17:55:25.679Z,101850.16
2019-04-14T17:58:25.368Z,101854.09
2019-04-14T18:01:14.935Z,101863.70
2019-04-14T18:04:06.644Z,101859.34
2019-04-14T18:06:49.983Z,101862.84
2019-04-14T18:09:28.625Z,101860.64
2019-04-14T18:12:14.958Z,101870.25
2019-04-14T18:15:01.402Z,101873.31
2019-04-14T18:17:39.710Z,101875.96
2019-04-14T18:20:13.498Z,101877.27
2019-04-14T18:22:43.538Z,101878.13
2019-04-14T18:25:14.141Z,101872.02
2019-04-14T18:28:02.590Z,101882.06
2019-04-14T18:30:36.143Z,101883.39
2019-04-14T18:33:18.540Z,101888.19
2019-04-14T18:36:08.821Z,101888.21
2019-04-14T18:38:59.377Z,101889.95
2019-04-14T18:41:37.934Z,101884.65
2019-04-14T18:44:17.291Z,101896.00
2019-04-14T18:46:53.763Z,101899.98
2019-04-14T18:49:33.586Z,101905.67
2019-04-14T18:52:20.632Z,101909.17
2019-04-14T18:54:59.749Z,101910.06
2019-04-14T18:57:56.516Z,101905.22
2019-04-14T19:00:34.542Z,101914.84
2019-04-14T19:03:05.447Z,101916.16
2019-04-14T19:05:37.094Z,101922.70
2019-04-14T19:08:10.403Z,101922.73
2019-04-14T19:10:39.177Z,101920.53
2019-04-14T19:13:26.629Z,101917.46
2019-04-14T19:16:17.322Z,101919.62
2019-04-14T19:18:49.147Z,101924.87
2019-04-14T19:21:22.584Z,101923.59
2019-04-14T19:23:54.870Z,101924.87
2019-04-14T19:26:23.803Z,101932.32
2019-04-14T19:28:54.651Z,101936.70
2019-04-14T19:31:24.966Z,101934.52
2019-04-14T19:33:55.973Z,101928.83
2019-04-14T19:36:26.208Z,101931.02
2019-04-14T19:38:55.029Z,101928.37
2019-04-14T19:41:23.916Z,101923.58
2019-04-14T19:43:57.773Z,101931.87
2019-04-14T19:46:27.819Z,101928.39
2019-04-14T19:49:00.596Z,101930.14
2019-04-14T19:51:34.018Z,101932.30
2019-04-14T19:54:04.569Z,101931.89
2019-04-14T19:56:35.562Z,101935.36
2019-04-14T19:59:08.261Z,101939.73
2019-04-14T20:01:37.029Z,101945.85
2019-04-14T20:04:09.337Z,101941.91
2019-04-14T20:06:42.205Z,101945.00
2019-04-14T20:09:12.882Z,101941.91
2019-04-14T20:11:43.642Z,101939.30
2019-04-14T20:14:13.911Z,101936.23
2019-04-14T20:17:06.700Z,101941.48
2019-04-14T20:19:49.461Z,101943.23
2019-04-14T20:22:29.023Z,101941.48
2019-04-14T20:25:19.070Z,101942.36
2019-04-14T20:27:55.101Z,101944.11
2019-04-14T20:30:31.119Z,101951.11
2019-04-14T20:33:00.235Z,101946.30
2019-04-14T20:35:30.684Z,101946.72
2019-04-14T20:38:00.025Z,101943.64
2019-04-14T20:40:28.944Z,101946.27
2019-04-14T20:42:59.577Z,101943.23
2019-04-14T20:45:28.474Z,101944.12
2019-04-14T20:48:01.420Z,101948.92
2019-04-14T20:50:31.674Z,101948.91
2019-04-14T20:53:00.237Z,101948.50
2019-04-14T20:55:45.934Z,101950.22
2019-04-14T20:58:05.962Z,101948.46
2019-04-14T21:00:39.527Z,101951.06
2019-04-14T21:03:23.432Z,101944.53
2019-04-14T21:06:09.821Z,101939.72
2019-04-14T21:09:02.056Z,101939.28
2019-04-14T21:11:50.019Z,101940.58
2019-04-14T21:14:29.907Z,101938.41
2019-04-14T21:20:11.251Z,101936.65
2019-04-14T21:22:53.209Z,101937.97
2019-04-14T21:25:39.852Z,101940.59
2019-04-14T21:28:29.978Z,101941.01
2019-04-14T21:31:16.142Z,101947.16
2019-04-14T21:34:03.939Z,101951.02
2019-04-14T21:36:53.530Z,101951.42
2019-04-14T21:39:32.684Z,101955.43
2019-04-14T21:42:04.836Z,101958.03
2019-04-14T21:44:39.436Z,101960.66
2019-04-14T21:47:11.255Z,101958.94
2019-04-14T21:49:41.500Z,101956.72
2019-04-14T21:52:31.497Z,101954.55
2019-04-14T21:55:01.853Z,101961.55
2019-04-14T21:57:46.273Z,101961.12
2019-04-14T22:00:35.398Z,101965.48
2019-04-14T22:03:23.415Z,101961.13
2019-04-14T22:06:17.692Z,101963.28
2019-04-14T22:08:51.372Z,101964.63
2019-04-14T22:11:21.787Z,101964.16
2019-04-14T22:13:51.864Z,101970.30
2019-04-14T22:16:22.107Z,101970.31
2019-04-14T22:18:51.419Z,101971.60
2019-04-14T22:21:42.740Z,101979.06
2019-04-14T22:24:13.898Z,101976.41
2019-04-14T22:26:42.894Z,101979.92
2019-04-14T22:29:12.523Z,101972.03
2019-04-14T22:31:41.102Z,101977.30
2019-04-14T22:34:10.244Z,101977.74
2019-04-14T22:36:43.756Z,101981.67
2019-04-14T22:39:16.234Z,101980.83
2019-04-14T22:41:47.112Z,101986.94
2019-04-14T22:44:18.110Z,101988.72
2019-04-14T22:46:51.505Z,101985.22
2019-04-14T22:49:20.661Z,101981.28
2019-04-14T22:51:50.609Z,101984.77
2019-04-14T22:54:20.777Z,101984.78
2019-04-14T22:56:53.089Z,101988.73
2019-04-14T22:59:23.527Z,101990.90
2019-04-14T23:02:01.434Z,101992.21
2019-04-14T23:04:49.821Z,101995.28
2019-04-14T23:07:55.908Z,101992.23
2019-04-14T23:11:03.482Z,101995.30
2019-04-14T23:13:39.957Z,101990.05
2019-04-14T23:16:26.293Z,101989.19
2019-04-14T23:19:18.230Z,101997.95
2019-04-14T23:21:56.760Z,101986.55
2019-04-14T23:24:30.257Z,101987.88
2019-04-14T23:26:59.006Z,101986.98
2019-04-14T23:29:27.572Z,101985.22
2019-04-14T23:31:58.637Z,101985.20
2019-04-14T23:34:33.482Z,101979.54
2019-04-14T23:37:02.577Z,101975.17
2019-04-14T23:39:36.188Z,101978.23
2019-04-14T23:42:07.652Z,101976.91
2019-04-14T23:44:37.751Z,101982.58
2019-04-14T23:47:08.076Z,101979.08
2019-04-14T23:49:37.036Z,101979.97
2019-04-14T23:52:07.813Z,101980.41
2019-04-14T23:54:36.578Z,101976.45
2019-04-14T23:57:07.662Z,101979.49
2019-04-14T23:59:36.907Z,101971.63
